sensor_id;sensor_type;location;lat;lon;timestamp;temperature;humidity
7307;DHT22;3694;48.732;9.248;2023-02-28T00:00:10;-2.90;83.50
7307;DHT22;3694;48.732;9.248;2023-02-28T00:02:37;-2.80;83.30
7307;DHT22;3694;48.732;9.248;2023-02-28T00:05:04;-2.70;83.40
7307;DHT22;3694;48.732;9.248;2023-02-28T00:07:31;-2.80;84.00
7307;DHT22;3694;48.732;9.248;2023-02-28T00:09:57;-2.80;84.10
7307;DHT22;3694;48.732;9.248;2023-02-28T00:12:23;-2.80;84.40
7307;DHT22;3694;48.732;9.248;2023-02-28T00:14:49;-2.80;84.30
7307;DHT22;3694;48.732;9.248;2023-02-28T00:17:15;-2.80;83.60
7307;DHT22;3694;48.732;9.248;2023-02-28T00:19:41;-2.70;84.30
7307;DHT22;3694;48.732;9.248;2023-02-28T00:22:07;-2.90;84.40
7307;DHT22;3694;48.732;9.248;2023-02-28T00:24:32;-2.90;84.50
7307;DHT22;3694;48.732;9.248;2023-02-28T00:26:58;-3.00;85.20
7307;DHT22;3694;48.732;9.248;2023-02-28T00:29:23;-3.00;86.00
7307;DHT22;3694;48.732;9.248;2023-02-28T00:31:49;-2.90;84.90
7307;DHT22;3694;48.732;9.248;2023-02-28T00:34:14;-2.80;85.70
7307;DHT22;3694;48.732;9.248;2023-02-28T00:36:39;-2.90;85.70
7307;DHT22;3694;48.732;9.248;2023-02-28T00:39:08;-2.90;85.40
7307;DHT22;3694;48.732;9.248;2023-02-28T00:41:34;-3.00;85.90
7307;DHT22;3694;48.732;9.248;2023-02-28T00:43:59;-3.00;85.60
7307;DHT22;3694;48.732;9.248;2023-02-28T00:46:25;-2.90;86.10
7307;DHT22;3694;48.732;9.248;2023-02-28T00:48:50;-3.00;86.10
7307;DHT22;3694;48.732;9.248;2023-02-28T00:51:16;-3.10;86.80
7307;DHT22;3694;48.732;9.248;2023-02-28T00:53:41;-3.00;87.00
7307;DHT22;3694;48.732;9.248;2023-02-28T00:56:07;-3.00;87.40
7307;DHT22;3694;48.732;9.248;2023-02-28T00:58:32;-3.00;88.20
7307;DHT22;3694;48.732;9.248;2023-02-28T01:00:58;-3.00;88.30
7307;DHT22;3694;48.732;9.248;2023-02-28T01:03:23;-3.00;88.40
7307;DHT22;3694;48.732;9.248;2023-02-28T01:05:50;-2.90;88.40
7307;DHT22;3694;48.732;9.248;2023-02-28T01:08:15;-2.90;88.70
7307;DHT22;3694;48.732;9.248;2023-02-28T01:10:41;-2.70;89.60
7307;DHT22;3694;48.732;9.248;2023-02-28T01:13:07;-3.00;89.00
7307;DHT22;3694;48.732;9.248;2023-02-28T01:15:33;-3.00;90.10
7307;DHT22;3694;48.732;9.248;2023-02-28T01:17:58;-3.00;90.40
7307;DHT22;3694;48.732;9.248;2023-02-28T01:20:24;-3.10;90.50
7307;DHT22;3694;48.732;9.248;2023-02-28T01:22:49;-3.10;90.50
7307;DHT22;3694;48.732;9.248;2023-02-28T01:25:15;-3.00;90.90
7307;DHT22;3694;48.732;9.248;2023-02-28T01:27:41;-3.00;91.00
7307;DHT22;3694;48.732;9.248;2023-02-28T01:30:08;-3.00;91.20
7307;DHT22;3694;48.732;9.248;2023-02-28T01:32:34;-3.10;91.30
7307;DHT22;3694;48.732;9.248;2023-02-28T01:34:59;-3.10;91.30
7307;DHT22;3694;48.732;9.248;2023-02-28T01:37:25;-3.20;91.70
7307;DHT22;3694;48.732;9.248;2023-02-28T01:39:50;-3.30;92.10
7307;DHT22;3694;48.732;9.248;2023-02-28T01:42:16;-3.20;92.00
7307;DHT22;3694;48.732;9.248;2023-02-28T01:45:03;-3.20;92.40
7307;DHT22;3694;48.732;9.248;2023-02-28T01:47:35;-3.10;92.30
7307;DHT22;3694;48.732;9.248;2023-02-28T01:50:06;-3.10;92.40
7307;DHT22;3694;48.732;9.248;2023-02-28T01:52:33;-3.20;92.90
7307;DHT22;3694;48.732;9.248;2023-02-28T01:55:01;-3.20;93.00
7307;DHT22;3694;48.732;9.248;2023-02-28T01:57:32;-3.20;93.10
7307;DHT22;3694;48.732;9.248;2023-02-28T02:00:12;-3.10;93.10
7307;DHT22;3694;48.732;9.248;2023-02-28T02:02:45;-3.10;93.10
7307;DHT22;3694;48.732;9.248;2023-02-28T02:05:22;-3.20;93.40
7307;DHT22;3694;48.732;9.248;2023-02-28T02:07:54;-3.10;93.20
7307;DHT22;3694;48.732;9.248;2023-02-28T02:10:33;-3.10;93.50
7307;DHT22;3694;48.732;9.248;2023-02-28T02:13:14;-3.20;93.60
7307;DHT22;3694;48.732;9.248;2023-02-28T02:16:13;-3.10;93.80
7307;DHT22;3694;48.732;9.248;2023-02-28T02:27:26;-3.00;93.70
7307;DHT22;3694;48.732;9.248;2023-02-28T02:32:54;-3.00;93.90
7307;DHT22;3694;48.732;9.248;2023-02-28T02:35:24;-3.00;94.10
7307;DHT22;3694;48.732;9.248;2023-02-28T02:40:27;-3.00;94.00
7307;DHT22;3694;48.732;9.248;2023-02-28T02:43:05;-3.00;94.10
7307;DHT22;3694;48.732;9.248;2023-02-28T02:45:55;-2.90;94.00
7307;DHT22;3694;48.732;9.248;2023-02-28T02:48:26;-3.00;94.10
7307;DHT22;3694;48.732;9.248;2023-02-28T02:50:55;-2.90;94.10
7307;DHT22;3694;48.732;9.248;2023-02-28T02:53:27;-2.90;94.40
7307;DHT22;3694;48.732;9.248;2023-02-28T02:55:54;-2.90;94.30
7307;DHT22;3694;48.732;9.248;2023-02-28T02:58:25;-2.90;94.80
7307;DHT22;3694;48.732;9.248;2023-02-28T03:00:57;-2.90;94.50
7307;DHT22;3694;48.732;9.248;2023-02-28T03:03:24;-2.90;94.20
7307;DHT22;3694;48.732;9.248;2023-02-28T03:05:58;-2.90;94.40
7307;DHT22;3694;48.732;9.248;2023-02-28T03:08:23;-2.90;94.50
7307;DHT22;3694;48.732;9.248;2023-02-28T03:10:51;-2.90;94.60
7307;DHT22;3694;48.732;9.248;2023-02-28T03:27:18;-2.90;95.30
7307;DHT22;3694;48.732;9.248;2023-02-28T03:30:03;-2.90;95.30
7307;DHT22;3694;48.732;9.248;2023-02-28T03:32:36;-2.90;95.40
7307;DHT22;3694;48.732;9.248;2023-02-28T03:35:16;-2.80;95.60
7307;DHT22;3694;48.732;9.248;2023-02-28T03:37:50;-2.80;95.50
7307;DHT22;3694;48.732;9.248;2023-02-28T03:40:23;-2.80;95.50
7307;DHT22;3694;48.732;9.248;2023-02-28T03:42:54;-2.80;95.80
7307;DHT22;3694;48.732;9.248;2023-02-28T03:45:25;-2.80;95.80
7307;DHT22;3694;48.732;9.248;2023-02-28T03:47:55;-2.80;95.60
7307;DHT22;3694;48.732;9.248;2023-02-28T03:50:34;-2.70;95.40
7307;DHT22;3694;48.732;9.248;2023-02-28T03:53:11;-2.70;95.50
7307;DHT22;3694;48.732;9.248;2023-02-28T03:55:49;-2.70;95.60
7307;DHT22;3694;48.732;9.248;2023-02-28T04:01:11;-2.70;95.50
7307;DHT22;3694;48.732;9.248;2023-02-28T04:03:38;-2.60;95.60
7307;DHT22;3694;48.732;9.248;2023-02-28T04:06:07;-2.60;95.70
7307;DHT22;3694;48.732;9.248;2023-02-28T04:08:33;-2.60;95.60
7307;DHT22;3694;48.732;9.248;2023-02-28T04:13:39;-2.60;95.80
7307;DHT22;3694;48.732;9.248;2023-02-28T04:16:08;-2.50;95.80
7307;DHT22;3694;48.732;9.248;2023-02-28T04:18:38;-2.60;95.40
7307;DHT22;3694;48.732;9.248;2023-02-28T04:21:04;-2.60;95.60
7307;DHT22;3694;48.732;9.248;2023-02-28T04:23:30;-2.50;95.80
7307;DHT22;3694;48.732;9.248;2023-02-28T04:25:56;-2.50;95.40
7307;DHT22;3694;48.732;9.248;2023-02-28T04:28:21;-2.50;95.90
7307;DHT22;3694;48.732;9.248;2023-02-28T04:30:47;-2.60;95.70
7307;DHT22;3694;48.732;9.248;2023-02-28T04:33:13;-2.90;95.40
7307;DHT22;3694;48.732;9.248;2023-02-28T04:35:38;-2.50;95.70
7307;DHT22;3694;48.732;9.248;2023-02-28T04:38:04;-2.50;95.90
7307;DHT22;3694;48.732;9.248;2023-02-28T04:40:29;-2.50;95.70
7307;DHT22;3694;48.732;9.248;2023-02-28T04:42:55;-2.50;95.90
7307;DHT22;3694;48.732;9.248;2023-02-28T04:45:20;-2.50;95.90
7307;DHT22;3694;48.732;9.248;2023-02-28T04:47:46;-2.50;96.10
7307;DHT22;3694;48.732;9.248;2023-02-28T04:50:11;-2.40;95.80
7307;DHT22;3694;48.732;9.248;2023-02-28T04:52:37;-2.50;96.20
7307;DHT22;3694;48.732;9.248;2023-02-28T04:55:02;-2.50;96.00
7307;DHT22;3694;48.732;9.248;2023-02-28T04:57:28;-2.50;96.00
7307;DHT22;3694;48.732;9.248;2023-02-28T04:59:55;-2.50;96.00
7307;DHT22;3694;48.732;9.248;2023-02-28T05:02:20;-2.50;96.20
7307;DHT22;3694;48.732;9.248;2023-02-28T05:04:46;-2.50;96.30
7307;DHT22;3694;48.732;9.248;2023-02-28T05:07:12;-2.50;96.10
7307;DHT22;3694;48.732;9.248;2023-02-28T05:09:37;-2.50;96.30
7307;DHT22;3694;48.732;9.248;2023-02-28T05:12:03;-2.40;96.40
7307;DHT22;3694;48.732;9.248;2023-02-28T05:14:28;-2.40;96.60
7307;DHT22;3694;48.732;9.248;2023-02-28T05:16:54;-2.50;96.70
7307;DHT22;3694;48.732;9.248;2023-02-28T05:19:20;-2.40;96.90
7307;DHT22;3694;48.732;9.248;2023-02-28T05:21:52;-2.40;96.50
7307;DHT22;3694;48.732;9.248;2023-02-28T05:24:17;-2.40;96.80
7307;DHT22;3694;48.732;9.248;2023-02-28T05:26:50;-2.40;96.70
7307;DHT22;3694;48.732;9.248;2023-02-28T05:29:16;-2.40;96.80
7307;DHT22;3694;48.732;9.248;2023-02-28T05:31:42;-2.40;96.80
7307;DHT22;3694;48.732;9.248;2023-02-28T05:34:07;-2.40;96.80
7307;DHT22;3694;48.732;9.248;2023-02-28T05:36:33;-2.40;97.10
7307;DHT22;3694;48.732;9.248;2023-02-28T05:38:59;-2.30;96.70
7307;DHT22;3694;48.732;9.248;2023-02-28T05:41:24;-2.40;96.80
7307;DHT22;3694;48.732;9.248;2023-02-28T05:43:51;-2.40;96.40
7307;DHT22;3694;48.732;9.248;2023-02-28T05:46:16;-2.40;96.70
7307;DHT22;3694;48.732;9.248;2023-02-28T05:48:45;-2.40;96.70
7307;DHT22;3694;48.732;9.248;2023-02-28T05:51:11;-2.40;96.40
7307;DHT22;3694;48.732;9.248;2023-02-28T05:53:37;-2.30;96.90
7307;DHT22;3694;48.732;9.248;2023-02-28T05:56:03;-2.30;96.90
7307;DHT22;3694;48.732;9.248;2023-02-28T05:58:28;-2.30;96.70
7307;DHT22;3694;48.732;9.248;2023-02-28T06:00:59;-2.30;96.80
7307;DHT22;3694;48.732;9.248;2023-02-28T06:03:26;-2.30;96.40
7307;DHT22;3694;48.732;9.248;2023-02-28T06:05:51;-2.30;96.60
7307;DHT22;3694;48.732;9.248;2023-02-28T06:08:17;-2.30;96.80
7307;DHT22;3694;48.732;9.248;2023-02-28T06:10:43;-2.20;96.30
7307;DHT22;3694;48.732;9.248;2023-02-28T06:13:10;-2.30;96.40
7307;DHT22;3694;48.732;9.248;2023-02-28T06:15:37;-2.20;96.30
7307;DHT22;3694;48.732;9.248;2023-02-28T06:18:02;-2.30;96.30
7307;DHT22;3694;48.732;9.248;2023-02-28T06:20:28;-2.20;96.50
7307;DHT22;3694;48.732;9.248;2023-02-28T06:22:56;-2.20;96.50
7307;DHT22;3694;48.732;9.248;2023-02-28T06:25:24;-2.10;96.50
7307;DHT22;3694;48.732;9.248;2023-02-28T06:27:50;-2.20;96.20
7307;DHT22;3694;48.732;9.248;2023-02-28T06:30:16;-2.20;96.20
7307;DHT22;3694;48.732;9.248;2023-02-28T06:32:42;-2.20;96.30
7307;DHT22;3694;48.732;9.248;2023-02-28T06:35:08;-2.20;96.50
7307;DHT22;3694;48.732;9.248;2023-02-28T06:37:33;-2.20;96.60
7307;DHT22;3694;48.732;9.248;2023-02-28T06:39:59;-2.10;96.70
7307;DHT22;3694;48.732;9.248;2023-02-28T06:42:25;-2.10;96.10
7307;DHT22;3694;48.732;9.248;2023-02-28T06:44:57;-2.10;96.10
7307;DHT22;3694;48.732;9.248;2023-02-28T06:47:23;-2.10;96.30
7307;DHT22;3694;48.732;9.248;2023-02-28T06:49:49;-2.00;96.40
7307;DHT22;3694;48.732;9.248;2023-02-28T06:52:15;-2.00;95.90
7307;DHT22;3694;48.732;9.248;2023-02-28T06:54:41;-2.00;95.90
7307;DHT22;3694;48.732;9.248;2023-02-28T06:57:07;-2.00;95.70
7307;DHT22;3694;48.732;9.248;2023-02-28T06:59:32;-2.00;95.60
7307;DHT22;3694;48.732;9.248;2023-02-28T07:01:58;-1.90;95.70
7307;DHT22;3694;48.732;9.248;2023-02-28T07:04:24;-1.70;96.00
7307;DHT22;3694;48.732;9.248;2023-02-28T07:06:49;-1.90;95.40
7307;DHT22;3694;48.732;9.248;2023-02-28T07:09:15;-1.80;95.50
7307;DHT22;3694;48.732;9.248;2023-02-28T07:11:40;-1.80;95.30
7307;DHT22;3694;48.732;9.248;2023-02-28T07:14:08;-1.80;95.40
7307;DHT22;3694;48.732;9.248;2023-02-28T07:16:33;-1.80;95.40
7307;DHT22;3694;48.732;9.248;2023-02-28T07:18:59;-1.80;95.50
7307;DHT22;3694;48.732;9.248;2023-02-28T07:21:24;-1.70;95.40
7307;DHT22;3694;48.732;9.248;2023-02-28T07:23:50;-1.80;95.40
7307;DHT22;3694;48.732;9.248;2023-02-28T07:26:18;-1.70;95.40
7307;DHT22;3694;48.732;9.248;2023-02-28T07:28:46;-1.70;95.00
7307;DHT22;3694;48.732;9.248;2023-02-28T07:31:12;-1.70;95.30
7307;DHT22;3694;48.732;9.248;2023-02-28T07:33:39;-1.70;94.90
7307;DHT22;3694;48.732;9.248;2023-02-28T07:36:06;-1.60;95.20
7307;DHT22;3694;48.732;9.248;2023-02-28T07:38:36;-1.60;95.10
7307;DHT22;3694;48.732;9.248;2023-02-28T07:41:03;-1.60;94.50
7307;DHT22;3694;48.732;9.248;2023-02-28T07:43:32;-1.60;94.80
7307;DHT22;3694;48.732;9.248;2023-02-28T07:46:07;-1.60;94.70
7307;DHT22;3694;48.732;9.248;2023-02-28T07:48:33;-1.60;94.50
7307;DHT22;3694;48.732;9.248;2023-02-28T07:50:59;-1.60;94.60
7307;DHT22;3694;48.732;9.248;2023-02-28T07:53:26;-1.50;95.00
7307;DHT22;3694;48.732;9.248;2023-02-28T07:55:57;-1.50;94.40
7307;DHT22;3694;48.732;9.248;2023-02-28T07:58:23;-1.50;94.50
7307;DHT22;3694;48.732;9.248;2023-02-28T08:00:49;-1.50;94.40
7307;DHT22;3694;48.732;9.248;2023-02-28T08:03:16;-1.50;94.30
7307;DHT22;3694;48.732;9.248;2023-02-28T08:05:41;-1.50;94.30
7307;DHT22;3694;48.732;9.248;2023-02-28T08:08:07;-1.50;94.60
7307;DHT22;3694;48.732;9.248;2023-02-28T08:10:33;-1.30;94.50
7307;DHT22;3694;48.732;9.248;2023-02-28T08:12:59;-1.30;94.60
7307;DHT22;3694;48.732;9.248;2023-02-28T08:15:25;-1.30;94.10
7307;DHT22;3694;48.732;9.248;2023-02-28T08:17:51;-1.20;94.40
7307;DHT22;3694;48.732;9.248;2023-02-28T08:20:16;-1.20;94.60
7307;DHT22;3694;48.732;9.248;2023-02-28T08:22:42;-1.20;94.10
7307;DHT22;3694;48.732;9.248;2023-02-28T08:25:08;-1.20;94.30
7307;DHT22;3694;48.732;9.248;2023-02-28T08:27:34;-1.20;94.10
7307;DHT22;3694;48.732;9.248;2023-02-28T08:29:59;-1.20;94.30
7307;DHT22;3694;48.732;9.248;2023-02-28T08:32:25;-1.00;94.30
7307;DHT22;3694;48.732;9.248;2023-02-28T08:34:50;-1.00;94.40
7307;DHT22;3694;48.732;9.248;2023-02-28T08:37:16;-1.10;94.10
7307;DHT22;3694;48.732;9.248;2023-02-28T08:39:42;-1.10;94.00
7307;DHT22;3694;48.732;9.248;2023-02-28T08:42:07;-1.10;93.90
7307;DHT22;3694;48.732;9.248;2023-02-28T08:44:33;-1.10;94.20
7307;DHT22;3694;48.732;9.248;2023-02-28T08:46:58;-1.00;94.20
7307;DHT22;3694;48.732;9.248;2023-02-28T08:49:24;-1.10;93.60
7307;DHT22;3694;48.732;9.248;2023-02-28T08:51:49;-0.90;94.10
7307;DHT22;3694;48.732;9.248;2023-02-28T08:54:15;-1.00;94.00
7307;DHT22;3694;48.732;9.248;2023-02-28T08:56:45;-1.00;94.10
7307;DHT22;3694;48.732;9.248;2023-02-28T08:59:10;-1.00;93.70
7307;DHT22;3694;48.732;9.248;2023-02-28T09:01:36;-0.90;94.00
7307;DHT22;3694;48.732;9.248;2023-02-28T09:04:02;-0.90;94.00
7307;DHT22;3694;48.732;9.248;2023-02-28T09:06:28;-0.90;94.10
7307;DHT22;3694;48.732;9.248;2023-02-28T09:08:56;-0.80;94.00
7307;DHT22;3694;48.732;9.248;2023-02-28T09:11:23;-0.90;93.70
7307;DHT22;3694;48.732;9.248;2023-02-28T09:13:49;-0.80;93.80
7307;DHT22;3694;48.732;9.248;2023-02-28T09:16:15;-0.80;93.50
7307;DHT22;3694;48.732;9.248;2023-02-28T09:18:42;-0.60;93.60
7307;DHT22;3694;48.732;9.248;2023-02-28T09:21:10;-0.60;93.30
7307;DHT22;3694;48.732;9.248;2023-02-28T09:23:38;-0.60;93.30
7307;DHT22;3694;48.732;9.248;2023-02-28T09:26:04;-0.50;93.60
7307;DHT22;3694;48.732;9.248;2023-02-28T09:28:30;-0.50;93.30
7307;DHT22;3694;48.732;9.248;2023-02-28T09:30:56;-0.40;93.50
7307;DHT22;3694;48.732;9.248;2023-02-28T09:33:24;-0.30;92.90
7307;DHT22;3694;48.732;9.248;2023-02-28T09:35:50;-0.20;92.80
7307;DHT22;3694;48.732;9.248;2023-02-28T09:38:17;-0.30;92.60
7307;DHT22;3694;48.732;9.248;2023-02-28T09:40:52;-0.20;93.00
7307;DHT22;3694;48.732;9.248;2023-02-28T09:43:22;-0.20;92.40
7307;DHT22;3694;48.732;9.248;2023-02-28T09:46:00;-0.10;92.60
7307;DHT22;3694;48.732;9.248;2023-02-28T09:48:35;0.00;92.30
7307;DHT22;3694;48.732;9.248;2023-02-28T09:53:48;0.00;92.30
7307;DHT22;3694;48.732;9.248;2023-02-28T09:56:39;0.00;92.50
7307;DHT22;3694;48.732;9.248;2023-02-28T10:02:00;0.30;92.00
7307;DHT22;3694;48.732;9.248;2023-02-28T10:04:50;0.50;91.80
7307;DHT22;3694;48.732;9.248;2023-02-28T10:09:59;0.60;91.30
7307;DHT22;3694;48.732;9.248;2023-02-28T10:12:28;0.60;91.80
7307;DHT22;3694;48.732;9.248;2023-02-28T10:14:55;0.80;91.20
7307;DHT22;3694;48.732;9.248;2023-02-28T10:17:26;0.70;90.90
7307;DHT22;3694;48.732;9.248;2023-02-28T10:20:17;0.60;91.00
7307;DHT22;3694;48.732;9.248;2023-02-28T10:25:37;0.80;91.30
7307;DHT22;3694;48.732;9.248;2023-02-28T10:28:12;0.90;90.90
7307;DHT22;3694;48.732;9.248;2023-02-28T10:30:43;1.10;90.80
7307;DHT22;3694;48.732;9.248;2023-02-28T10:33:36;1.20;90.10
7307;DHT22;3694;48.732;9.248;2023-02-28T10:36:03;1.40;88.20
7307;DHT22;3694;48.732;9.248;2023-02-28T10:38:36;1.50;89.30
7307;DHT22;3694;48.732;9.248;2023-02-28T10:41:08;1.70;89.20
7307;DHT22;3694;48.732;9.248;2023-02-28T10:43:35;1.90;88.30
7307;DHT22;3694;48.732;9.248;2023-02-28T10:48:43;2.00;87.40
7307;DHT22;3694;48.732;9.248;2023-02-28T10:51:14;2.20;86.40
7307;DHT22;3694;48.732;9.248;2023-02-28T11:03:52;2.70;84.40
7307;DHT22;3694;48.732;9.248;2023-02-28T11:06:23;2.80;83.60
7307;DHT22;3694;48.732;9.248;2023-02-28T11:08:55;3.00;82.30
7307;DHT22;3694;48.732;9.248;2023-02-28T11:11:24;3.00;82.30
7307;DHT22;3694;48.732;9.248;2023-02-28T11:13:54;2.90;80.50
7307;DHT22;3694;48.732;9.248;2023-02-28T11:16:21;2.70;81.90
7307;DHT22;3694;48.732;9.248;2023-02-28T11:18:50;2.50;82.20
7307;DHT22;3694;48.732;9.248;2023-02-28T11:21:19;2.30;81.20
7307;DHT22;3694;48.732;9.248;2023-02-28T11:23:45;2.10;84.00
7307;DHT22;3694;48.732;9.248;2023-02-28T11:26:11;2.10;84.60
7307;DHT22;3694;48.732;9.248;2023-02-28T11:28:39;2.00;83.30
7307;DHT22;3694;48.732;9.248;2023-02-28T11:33:54;1.80;83.20
7307;DHT22;3694;48.732;9.248;2023-02-28T11:36:26;1.80;83.20
7307;DHT22;3694;48.732;9.248;2023-02-28T11:38:59;1.80;83.70
7307;DHT22;3694;48.732;9.248;2023-02-28T11:41:45;2.00;82.90
7307;DHT22;3694;48.732;9.248;2023-02-28T11:44:20;2.20;82.60
7307;DHT22;3694;48.732;9.248;2023-02-28T11:46:51;2.60;82.30
7307;DHT22;3694;48.732;9.248;2023-02-28T11:51:59;3.00;82.60
7307;DHT22;3694;48.732;9.248;2023-02-28T11:57:00;3.10;79.80
7307;DHT22;3694;48.732;9.248;2023-02-28T11:59:49;3.00;82.30
7307;DHT22;3694;48.732;9.248;2023-02-28T12:02:28;2.90;80.00
7307;DHT22;3694;48.732;9.248;2023-02-28T12:05:24;3.00;81.90
7307;DHT22;3694;48.732;9.248;2023-02-28T12:13:46;3.20;81.10
7307;DHT22;3694;48.732;9.248;2023-02-28T12:16:44;3.00;80.40
7307;DHT22;3694;48.732;9.248;2023-02-28T12:22:32;3.10;80.60
7307;DHT22;3694;48.732;9.248;2023-02-28T12:27:48;3.60;79.30
7307;DHT22;3694;48.732;9.248;2023-02-28T12:30:31;3.80;81.60
7307;DHT22;3694;48.732;9.248;2023-02-28T12:33:12;3.90;78.60
7307;DHT22;3694;48.732;9.248;2023-02-28T12:35:57;4.00;80.00
7307;DHT22;3694;48.732;9.248;2023-02-28T12:41:28;4.00;78.50
7307;DHT22;3694;48.732;9.248;2023-02-28T12:44:06;3.80;79.80
7307;DHT22;3694;48.732;9.248;2023-02-28T12:46:36;3.90;78.90
7307;DHT22;3694;48.732;9.248;2023-02-28T12:49:08;4.10;80.50
7307;DHT22;3694;48.732;9.248;2023-02-28T12:51:35;4.10;79.40
7307;DHT22;3694;48.732;9.248;2023-02-28T12:59:42;3.80;76.70
7307;DHT22;3694;48.732;9.248;2023-02-28T13:08:27;3.90;77.40
7307;DHT22;3694;48.732;9.248;2023-02-28T13:10:57;4.00;77.40
7307;DHT22;3694;48.732;9.248;2023-02-28T13:13:25;4.10;76.80
7307;DHT22;3694;48.732;9.248;2023-02-28T13:16:05;4.10;78.60
7307;DHT22;3694;48.732;9.248;2023-02-28T13:18:43;4.20;77.70
7307;DHT22;3694;48.732;9.248;2023-02-28T13:21:26;4.40;77.00
7307;DHT22;3694;48.732;9.248;2023-02-28T13:42:33;4.20;75.60
7307;DHT22;3694;48.732;9.248;2023-02-28T13:47:39;4.10;74.60
7307;DHT22;3694;48.732;9.248;2023-02-28T14:03:58;4.60;75.60
7307;DHT22;3694;48.732;9.248;2023-02-28T14:06:36;4.60;76.10
7307;DHT22;3694;48.732;9.248;2023-02-28T14:11:51;4.40;75.30
7307;DHT22;3694;48.732;9.248;2023-02-28T14:17:12;4.30;74.90
7307;DHT22;3694;48.732;9.248;2023-02-28T14:19:39;4.30;75.60
7307;DHT22;3694;48.732;9.248;2023-02-28T14:22:43;4.30;73.90
7307;DHT22;3694;48.732;9.248;2023-02-28T14:28:19;4.50;75.20
7307;DHT22;3694;48.732;9.248;2023-02-28T14:33:59;4.40;75.60
7307;DHT22;3694;48.732;9.248;2023-02-28T14:36:36;4.40;74.50
7307;DHT22;3694;48.732;9.248;2023-02-28T14:39:23;4.30;74.30
7307;DHT22;3694;48.732;9.248;2023-02-28T14:41:50;4.30;75.30
7307;DHT22;3694;48.732;9.248;2023-02-28T14:44:25;4.40;73.20
7307;DHT22;3694;48.732;9.248;2023-02-28T14:46:59;4.40;73.90
7307;DHT22;3694;48.732;9.248;2023-02-28T14:49:37;4.30;72.70
7307;DHT22;3694;48.732;9.248;2023-02-28T14:52:14;4.30;76.50
7307;DHT22;3694;48.732;9.248;2023-02-28T14:54:41;4.20;74.10
7307;DHT22;3694;48.732;9.248;2023-02-28T14:57:24;4.00;72.20
7307;DHT22;3694;48.732;9.248;2023-02-28T15:00:13;3.90;73.50
7307;DHT22;3694;48.732;9.248;2023-02-28T15:02:40;3.80;74.20
7307;DHT22;3694;48.732;9.248;2023-02-28T15:05:33;3.70;73.30
7307;DHT22;3694;48.732;9.248;2023-02-28T15:08:14;3.70;72.40
7307;DHT22;3694;48.732;9.248;2023-02-28T15:10:45;3.60;73.90
7307;DHT22;3694;48.732;9.248;2023-02-28T15:13:15;3.70;74.70
7307;DHT22;3694;48.732;9.248;2023-02-28T15:15:57;3.70;75.10
7307;DHT22;3694;48.732;9.248;2023-02-28T15:18:48;3.60;73.40
7307;DHT22;3694;48.732;9.248;2023-02-28T15:23:59;3.60;74.10
7307;DHT22;3694;48.732;9.248;2023-02-28T15:26:31;3.50;74.70
7307;DHT22;3694;48.732;9.248;2023-02-28T15:37:39;3.40;74.20
7307;DHT22;3694;48.732;9.248;2023-02-28T15:42:31;3.40;74.40
7307;DHT22;3694;48.732;9.248;2023-02-28T15:44:57;3.30;74.20
7307;DHT22;3694;48.732;9.248;2023-02-28T15:47:25;3.30;74.30
7307;DHT22;3694;48.732;9.248;2023-02-28T15:49:52;3.30;73.90
7307;DHT22;3694;48.732;9.248;2023-02-28T15:52:24;3.30;74.00
7307;DHT22;3694;48.732;9.248;2023-02-28T15:54:51;3.30;74.60
7307;DHT22;3694;48.732;9.248;2023-02-28T15:57:25;3.20;74.50
7307;DHT22;3694;48.732;9.248;2023-02-28T15:59:56;3.50;75.80
7307;DHT22;3694;48.732;9.248;2023-02-28T16:02:33;3.20;74.50
7307;DHT22;3694;48.732;9.248;2023-02-28T16:07:40;3.10;76.00
7307;DHT22;3694;48.732;9.248;2023-02-28T16:10:08;3.00;74.90
7307;DHT22;3694;48.732;9.248;2023-02-28T16:12:36;3.00;75.40
7307;DHT22;3694;48.732;9.248;2023-02-28T16:15:07;2.90;75.80
7307;DHT22;3694;48.732;9.248;2023-02-28T16:17:35;2.90;75.70
7307;DHT22;3694;48.732;9.248;2023-02-28T16:20:01;2.90;75.60
7307;DHT22;3694;48.732;9.248;2023-02-28T16:22:26;2.80;77.00
7307;DHT22;3694;48.732;9.248;2023-02-28T16:24:52;2.80;76.60
7307;DHT22;3694;48.732;9.248;2023-02-28T16:27:29;2.60;76.60
7307;DHT22;3694;48.732;9.248;2023-02-28T16:29:55;2.60;77.50
7307;DHT22;3694;48.732;9.248;2023-02-28T16:32:21;2.50;76.40
7307;DHT22;3694;48.732;9.248;2023-02-28T16:34:46;2.50;76.50
7307;DHT22;3694;48.732;9.248;2023-02-28T16:37:17;2.40;76.90
7307;DHT22;3694;48.732;9.248;2023-02-28T16:39:43;2.40;75.80
7307;DHT22;3694;48.732;9.248;2023-02-28T16:42:24;2.30;77.30
7307;DHT22;3694;48.732;9.248;2023-02-28T16:44:50;2.10;77.60
7307;DHT22;3694;48.732;9.248;2023-02-28T16:47:17;2.10;76.80
7307;DHT22;3694;48.732;9.248;2023-02-28T16:49:42;1.90;77.70
7307;DHT22;3694;48.732;9.248;2023-02-28T16:52:09;2.00;77.40
7307;DHT22;3694;48.732;9.248;2023-02-28T16:54:35;1.90;77.70
7307;DHT22;3694;48.732;9.248;2023-02-28T16:57:01;2.00;77.20
7307;DHT22;3694;48.732;9.248;2023-02-28T16:59:27;1.90;77.50
7307;DHT22;3694;48.732;9.248;2023-02-28T17:01:54;1.90;77.30
7307;DHT22;3694;48.732;9.248;2023-02-28T17:04:23;1.80;77.40
7307;DHT22;3694;48.732;9.248;2023-02-28T17:06:49;1.70;78.30
7307;DHT22;3694;48.732;9.248;2023-02-28T17:09:18;1.60;78.90
7307;DHT22;3694;48.732;9.248;2023-02-28T17:11:44;1.50;78.90
7307;DHT22;3694;48.732;9.248;2023-02-28T17:14:10;1.40;79.00
7307;DHT22;3694;48.732;9.248;2023-02-28T17:16:37;1.40;79.80
7307;DHT22;3694;48.732;9.248;2023-02-28T17:19:06;1.20;80.70
7307;DHT22;3694;48.732;9.248;2023-02-28T17:21:34;1.20;79.60
7307;DHT22;3694;48.732;9.248;2023-02-28T17:24:00;1.30;80.10
7307;DHT22;3694;48.732;9.248;2023-02-28T17:26:26;1.40;79.60
7307;DHT22;3694;48.732;9.248;2023-02-28T17:28:54;1.40;79.60
7307;DHT22;3694;48.732;9.248;2023-02-28T17:31:21;1.40;79.10
7307;DHT22;3694;48.732;9.248;2023-02-28T17:33:47;1.30;79.80
7307;DHT22;3694;48.732;9.248;2023-02-28T17:36:20;1.30;79.60
7307;DHT22;3694;48.732;9.248;2023-02-28T17:38:47;1.20;80.50
7307;DHT22;3694;48.732;9.248;2023-02-28T17:41:13;1.20;80.40
7307;DHT22;3694;48.732;9.248;2023-02-28T17:43:39;1.10;80.90
7307;DHT22;3694;48.732;9.248;2023-02-28T17:46:21;0.90;81.90
7307;DHT22;3694;48.732;9.248;2023-02-28T17:48:48;1.00;81.00
7307;DHT22;3694;48.732;9.248;2023-02-28T17:51:15;1.00;81.60
7307;DHT22;3694;48.732;9.248;2023-02-28T17:53:41;0.80;81.90
7307;DHT22;3694;48.732;9.248;2023-02-28T17:56:25;0.90;81.60
7307;DHT22;3694;48.732;9.248;2023-02-28T17:58:53;0.80;82.20
7307;DHT22;3694;48.732;9.248;2023-02-28T18:01:19;0.80;82.00
7307;DHT22;3694;48.732;9.248;2023-02-28T18:03:45;0.80;82.10
7307;DHT22;3694;48.732;9.248;2023-02-28T18:06:27;0.80;81.80
7307;DHT22;3694;48.732;9.248;2023-02-28T18:08:54;0.80;81.10
7307;DHT22;3694;48.732;9.248;2023-02-28T18:11:21;1.00;81.60
7307;DHT22;3694;48.732;9.248;2023-02-28T18:13:49;0.90;81.20
7307;DHT22;3694;48.732;9.248;2023-02-28T18:16:16;0.90;81.20
7307;DHT22;3694;48.732;9.248;2023-02-28T18:18:42;0.90;81.30
7307;DHT22;3694;48.732;9.248;2023-02-28T18:21:10;0.80;81.60
7307;DHT22;3694;48.732;9.248;2023-02-28T18:23:36;0.70;82.10
7307;DHT22;3694;48.732;9.248;2023-02-28T18:26:04;0.50;82.70
7307;DHT22;3694;48.732;9.248;2023-02-28T18:28:30;0.50;82.60
7307;DHT22;3694;48.732;9.248;2023-02-28T18:31:05;0.70;82.90
7307;DHT22;3694;48.732;9.248;2023-02-28T18:33:31;0.50;82.70
7307;DHT22;3694;48.732;9.248;2023-02-28T18:35:56;0.40;82.90
7307;DHT22;3694;48.732;9.248;2023-02-28T18:38:22;0.30;83.60
7307;DHT22;3694;48.732;9.248;2023-02-28T18:41:06;0.40;83.20
7307;DHT22;3694;48.732;9.248;2023-02-28T18:43:33;0.20;84.10
7307;DHT22;3694;48.732;9.248;2023-02-28T18:46:08;0.10;84.50
7307;DHT22;3694;48.732;9.248;2023-02-28T18:48:34;0.00;84.70
7307;DHT22;3694;48.732;9.248;2023-02-28T18:51:18;0.10;84.50
7307;DHT22;3694;48.732;9.248;2023-02-28T18:53:45;0.10;84.60
7307;DHT22;3694;48.732;9.248;2023-02-28T18:56:12;0.10;85.00
7307;DHT22;3694;48.732;9.248;2023-02-28T18:58:38;-0.10;85.00